Time;durP1;ratioP1;P1;durP2;ratioP2;P2;SDS_P1;SDS_P2;PMS_P1;PMS_P2;Temp;Humidity;BMP_temperature;BMP_pressure;BME280_temperature;BME280_humidity;BME280_pressure;Samples;Min_cycle;Max_cycle;Signal;HPM_P1;HPM_P2
2023/08/02 00:02:16;;;;;;;9.50;3.57;;;16.60;99.90;;;;;;5027791;28;20040;-72
2023/08/02 00:04:42;;;;;;;9.93;3.47;;;16.60;99.90;;;;;;5015772;28;20033;-73
2023/08/02 00:07:08;;;;;;;13.57;3.43;;;16.60;99.90;;;;;;5014861;28;20022;-72
2023/08/02 00:09:34;;;;;;;9.50;3.00;;;16.60;99.90;;;;;;5011070;28;20058;-73
2023/08/02 00:12:00;;;;;;;10.13;3.20;;;16.60;99.90;;;;;;5031063;28;20029;-73
2023/08/02 00:14:26;;;;;;;8.65;3.17;;;16.60;99.90;;;;;;5016579;28;20132;-73
2023/08/02 00:16:51;;;;;;;13.80;2.95;;;16.60;99.90;;;;;;5012746;28;20057;-72
2023/08/02 00:19:17;;;;;;;11.73;2.70;;;16.60;99.90;;;;;;5009278;28;20053;-72
2023/08/02 00:21:43;;;;;;;6.20;2.97;;;16.60;99.90;;;;;;5009501;28;20309;-73
2023/08/02 00:24:09;;;;;;;7.78;2.67;;;16.50;99.90;;;;;;5009367;28;20052;-72
2023/08/02 00:26:35;;;;;;;12.70;2.73;;;16.50;99.90;;;;;;5003519;28;20715;-72
2023/08/02 00:29:00;;;;;;;5.33;2.63;;;16.50;99.90;;;;;;5001348;28;20045;-72
2023/08/02 00:31:26;;;;;;;9.57;2.13;;;16.40;99.90;;;;;;5024702;28;20018;-72
2023/08/02 00:33:52;;;;;;;8.67;2.73;;;16.40;99.90;;;;;;5013626;28;20303;-72
2023/08/02 00:36:17;;;;;;;14.43;2.70;;;16.30;99.90;;;;;;5005676;28;20352;-78
2023/08/02 00:38:43;;;;;;;4.50;1.90;;;16.40;99.90;;;;;;5009906;28;20030;-72
2023/08/02 00:41:09;;;;;;;4.77;2.20;;;16.30;99.90;;;;;;5013773;28;20028;-72
2023/08/02 00:43:46;;;;;;;9.10;2.45;;;16.30;99.90;;;;;;5005464;28;20032;-73
2023/08/02 00:46:19;;;;;;;7.90;1.88;;;16.30;99.90;;;;;;5008689;28;20040;-78
2023/08/02 00:48:47;;;;;;;11.43;2.63;;;16.30;99.90;;;;;;5008022;28;20022;-72
2023/08/02 00:51:17;;;;;;;11.73;2.70;;;16.30;99.90;;;;;;5004053;28;20030;-72
2023/08/02 00:53:44;;;;;;;8.85;3.13;;;16.20;99.90;;;;;;5018894;28;20041;-73
2023/08/02 00:56:11;;;;;;;9.63;2.42;;;16.30;99.90;;;;;;5025746;28;20076;-72
2023/08/02 00:58:37;;;;;;;;;;;16.20;99.90;;;;;;5022419;28;20115;-72
2023/08/02 01:01:07;;;;;;;6.43;1.92;;;16.30;99.90;;;;;;5029924;28;19912;-72
2023/08/02 01:03:37;;;;;;;12.88;2.00;;;16.30;99.90;;;;;;5020858;28;20038;-73
2023/08/02 01:06:34;;;;;;;8.80;2.80;;;16.40;99.90;;;;;;5020164;28;20409;-72
2023/08/02 01:09:21;;;;;;;5.72;2.10;;;16.30;99.90;;;;;;5014221;28;20031;-72
2023/08/02 01:11:54;;;;;;;10.20;2.72;;;16.40;99.90;;;;;;5027010;28;20044;-84
2023/08/02 01:14:21;;;;;;;8.45;2.75;;;16.40;99.90;;;;;;5029881;28;20029;-81
2023/08/02 01:16:50;;;;;;;11.02;2.47;;;16.40;99.90;;;;;;5025526;28;20037;-72
2023/08/02 01:19:21;;;;;;;6.05;2.30;;;16.40;99.90;;;;;;5032345;28;20029;-81
2023/08/02 01:21:47;;;;;;;6.50;2.22;;;16.40;99.90;;;;;;5018554;28;20402;-72
2023/08/02 01:24:12;;;;;;;3.38;2.00;;;16.40;99.90;;;;;;5013028;28;20056;-71
2023/08/02 01:26:43;;;;;;;9.17;2.40;;;16.40;99.90;;;;;;5011109;28;20068;-72
2023/08/02 01:29:17;;;;;;;6.55;2.22;;;16.40;99.90;;;;;;5016615;28;20072;-72
2023/08/02 01:31:44;;;;;;;9.10;2.38;;;16.40;99.90;;;;;;5014944;28;20026;-72
2023/08/02 01:34:11;;;;;;;8.05;3.05;;;16.40;99.90;;;;;;5011990;28;20034;-72
2023/08/02 01:36:37;;;;;;;4.53;2.25;;;16.40;99.90;;;;;;5013927;28;20030;-72
2023/08/02 01:39:05;;;;;;;8.00;2.20;;;16.40;99.90;;;;;;5012439;28;20061;-72
2023/08/02 01:41:31;;;;;;;5.47;2.38;;;16.50;99.90;;;;;;5014552;28;20026;-72
2023/08/02 01:43:57;;;;;;;7.23;2.57;;;16.40;99.90;;;;;;5013195;28;20030;-73
2023/08/02 01:46:22;;;;;;;6.87;2.20;;;16.40;99.90;;;;;;4999848;28;20026;-72
2023/08/02 01:48:48;;;;;;;4.93;2.07;;;16.40;99.90;;;;;;4997220;28;20097;-72
2023/08/02 01:51:14;;;;;;;6.30;2.30;;;16.40;99.90;;;;;;5008162;28;20030;-72
2023/08/02 01:53:39;;;;;;;4.40;3.13;;;16.40;99.90;;;;;;5012906;28;20369;-73
2023/08/02 01:56:05;;;;;;;7.00;2.60;;;16.40;99.90;;;;;;5011320;28;20035;-72
2023/08/02 01:58:31;;;;;;;4.87;2.50;;;16.30;99.90;;;;;;5014470;28;20026;-73
2023/08/02 02:00:56;;;;;;;11.57;3.17;;;16.20;99.90;;;;;;5014099;28;20091;-87
2023/08/02 02:03:22;;;;;;;5.80;2.63;;;16.10;99.90;;;;;;5014367;28;20053;-72
2023/08/02 02:05:54;;;;;;;6.03;2.83;;;16.00;99.90;;;;;;5008747;28;20022;-72
2023/08/02 02:08:20;;;;;;;6.50;3.05;;;16.00;99.90;;;;;;5014163;28;20101;-86
2023/08/02 02:10:53;;;;;;;6.70;3.07;;;15.90;99.90;;;;;;5003239;28;20109;-72
2023/08/02 02:13:20;;;;;;;7.45;3.67;;;15.90;99.90;;;;;;5012568;28;20033;-87
2023/08/02 02:15:46;;;;;;;11.80;2.80;;;15.90;99.90;;;;;;5014578;28;20373;-72
2023/08/02 02:18:12;;;;;;;12.10;3.03;;;15.90;99.90;;;;;;5013903;28;20053;-73
2023/08/02 02:20:37;;;;;;;6.30;2.63;;;15.90;99.90;;;;;;5013084;28;20025;-72
2023/08/02 02:23:03;;;;;;;7.53;3.17;;;15.90;99.90;;;;;;5008042;28;20026;-72
2023/08/02 02:25:29;;;;;;;13.43;3.20;;;15.90;99.90;;;;;;5012615;28;20441;-87
2023/08/02 02:27:54;;;;;;;9.63;2.80;;;15.90;99.90;;;;;;5013610;28;20033;-72
2023/08/02 02:30:21;;;;;;;6.33;3.13;;;15.90;99.90;;;;;;5013269;28;20417;-72
2023/08/02 02:32:47;;;;;;;8.73;2.90;;;15.90;99.90;;;;;;5019430;28;20753;-72
2023/08/02 02:35:13;;;;;;;8.37;3.40;;;15.90;99.90;;;;;;5001064;28;20038;-72
2023/08/02 02:37:39;;;;;;;7.13;2.90;;;15.90;99.90;;;;;;5005013;28;20025;-72
2023/08/02 02:40:09;;;;;;;5.13;3.13;;;15.90;99.90;;;;;;5000962;28;20036;-73
2023/08/02 02:42:38;;;;;;;15.02;3.38;;;15.90;99.90;;;;;;5007103;28;20115;-72
2023/08/02 02:45:04;;;;;;;11.50;3.20;;;15.90;99.90;;;;;;5039714;28;20027;-72
2023/08/02 02:47:30;;;;;;;7.28;3.67;;;15.90;99.90;;;;;;5006115;28;20033;-71
2023/08/02 02:49:56;;;;;;;12.53;3.97;;;15.90;99.90;;;;;;5003039;28;20034;-72
2023/08/02 02:52:22;;;;;;;6.00;2.83;;;15.90;99.90;;;;;;5008039;28;20076;-83
2023/08/02 02:54:47;;;;;;;8.70;3.88;;;15.90;99.90;;;;;;5013515;28;20337;-72
2023/08/02 02:57:14;;;;;;;10.27;3.37;;;15.90;99.90;;;;;;4999825;28;20031;-72
2023/08/02 02:59:40;;;;;;;9.52;3.30;;;15.90;99.90;;;;;;5014319;28;20354;-84
2023/08/02 03:02:06;;;;;;;7.80;3.10;;;15.90;99.90;;;;;;5009184;28;20110;-72
2023/08/02 03:04:31;;;;;;;5.07;3.33;;;15.90;99.90;;;;;;5008779;28;20437;-73
2023/08/02 03:06:57;;;;;;;8.13;3.33;;;15.80;99.90;;;;;;5009959;28;20034;-71
2023/08/02 03:09:23;;;;;;;8.23;3.70;;;15.80;99.90;;;;;;5006625;28;20309;-73
2023/08/02 03:11:49;;;;;;;14.67;3.93;;;15.90;99.90;;;;;;5013115;28;20379;-72
2023/08/02 03:14:14;;;;;;;5.60;3.13;;;15.80;99.90;;;;;;5022461;28;20030;-72
2023/08/02 03:16:43;;;;;;;9.27;3.17;;;15.80;99.90;;;;;;5026313;28;20075;-72
2023/08/02 03:19:10;;;;;;;6.90;2.95;;;15.80;99.90;;;;;;5013962;28;20117;-72
2023/08/02 03:21:36;;;;;;;7.22;3.25;;;15.80;99.90;;;;;;5016277;28;20033;-72
2023/08/02 03:24:02;;;;;;;9.03;2.80;;;15.80;99.90;;;;;;5020310;28;20470;-72
2023/08/02 03:26:28;;;;;;;9.25;3.25;;;15.80;99.90;;;;;;5016044;28;20050;-72
2023/08/02 03:28:54;;;;;;;9.00;2.60;;;15.70;99.90;;;;;;5014415;28;20092;-72
2023/08/02 03:31:19;;;;;;;7.70;3.17;;;15.70;99.90;;;;;;5015587;28;20032;-87
2023/08/02 03:33:45;;;;;;;5.70;2.63;;;15.70;99.90;;;;;;5013785;28;20030;-74
2023/08/02 03:36:11;;;;;;;16.07;3.53;;;15.70;99.90;;;;;;5022579;28;20341;-72
2023/08/02 03:38:36;;;;;;;14.77;3.33;;;15.70;99.90;;;;;;5015738;28;20040;-72
2023/08/02 03:41:02;;;;;;;6.63;2.90;;;15.70;99.90;;;;;;5030973;28;20121;-72
2023/08/02 03:43:28;;;;;;;4.50;2.60;;;15.60;99.90;;;;;;5031494;28;20034;-72
2023/08/02 03:45:53;;;;;;;7.30;3.43;;;15.60;99.90;;;;;;5014945;28;20025;-72
2023/08/02 03:48:19;;;;;;;14.03;3.50;;;15.60;99.90;;;;;;5009367;28;20029;-85
2023/08/02 03:50:45;;;;;;;7.97;3.33;;;15.60;99.90;;;;;;5030343;28;20030;-72
2023/08/02 03:53:11;;;;;;;10.70;2.93;;;15.60;99.90;;;;;;5009181;28;20041;-72
2023/08/02 03:55:36;;;;;;;12.80;3.60;;;15.60;99.90;;;;;;5012989;28;20018;-72
2023/08/02 03:58:02;;;;;;;8.13;2.83;;;15.50;99.90;;;;;;5014681;28;20112;-72
2023/08/02 04:00:28;;;;;;;7.87;3.10;;;15.50;99.90;;;;;;5015822;28;20025;-84
2023/08/02 04:02:55;;;;;;;10.23;3.20;;;15.50;99.90;;;;;;5027867;28;20366;-72
2023/08/02 04:05:20;;;;;;;6.70;3.05;;;15.50;99.90;;;;;;5020905;28;20034;-84
2023/08/02 04:07:46;;;;;;;7.13;3.17;;;15.40;99.90;;;;;;5005645;28;20451;-72
2023/08/02 04:10:11;;;;;;;8.23;2.83;;;15.40;99.90;;;;;;5002119;28;20030;-72
2023/08/02 04:12:37;;;;;;;6.27;2.80;;;15.40;99.90;;;;;;5003546;28;20337;-71
2023/08/02 04:15:04;;;;;;;7.57;3.10;;;15.40;99.90;;;;;;5014057;28;20382;-72
2023/08/02 04:17:29;;;;;;;8.60;2.63;;;15.40;99.90;;;;;;5030269;28;20045;-81
2023/08/02 04:19:55;;;;;;;4.57;2.80;;;15.40;99.90;;;;;;5011662;28;20035;-72
2023/08/02 04:22:21;;;;;;;8.13;2.77;;;15.50;99.90;;;;;;5014449;28;20072;-80
2023/08/02 04:24:47;;;;;;;7.97;2.60;;;15.50;99.90;;;;;;5004639;28;20030;-71
2023/08/02 04:27:13;;;;;;;12.30;2.70;;;15.50;99.90;;;;;;5014100;28;20025;-72
2023/08/02 04:29:39;;;;;;;7.43;2.70;;;15.50;99.90;;;;;;5013996;28;20097;-72
2023/08/02 04:32:05;;;;;;;6.60;2.50;;;15.50;99.90;;;;;;5013259;28;20076;-72
2023/08/02 04:34:30;;;;;;;7.13;3.03;;;15.50;99.90;;;;;;5007253;28;20085;-80
2023/08/02 04:36:56;;;;;;;6.20;2.63;;;15.50;99.90;;;;;;5008637;28;20460;-72
2023/08/02 04:39:22;;;;;;;7.03;3.07;;;15.50;99.90;;;;;;5013845;28;20037;-76
2023/08/02 04:41:54;;;;;;;8.13;2.83;;;15.40;99.90;;;;;;5013784;28;20064;-72
2023/08/02 04:44:20;;;;;;;8.82;3.03;;;15.50;99.90;;;;;;5010325;28;20413;-81
2023/08/02 04:46:46;;;;;;;8.80;2.60;;;15.50;99.90;;;;;;5011623;28;20072;-72
2023/08/02 04:49:12;;;;;;;7.20;2.90;;;15.50;99.90;;;;;;5009976;28;20283;-72
2023/08/02 04:51:38;;;;;;;3.87;2.30;;;15.50;99.90;;;;;;5004089;28;20116;-74
2023/08/02 04:54:04;;;;;;;5.45;2.38;;;15.50;99.90;;;;;;5012604;28;20080;-72
2023/08/02 04:56:31;;;;;;;8.52;2.80;;;15.50;99.90;;;;;;5018923;28;20034;-74
2023/08/02 04:58:56;;;;;;;4.95;2.20;;;15.50;99.90;;;;;;5011600;28;20034;-72
2023/08/02 05:01:22;;;;;;;7.30;2.50;;;15.50;99.90;;;;;;5002661;28;20321;-73
2023/08/02 05:03:48;;;;;;;5.37;2.07;;;15.50;99.90;;;;;;5003682;28;20418;-72
2023/08/02 05:06:13;;;;;;;4.43;2.80;;;15.60;99.90;;;;;;5005641;28;20061;-73
2023/08/02 05:08:39;;;;;;;3.93;2.43;;;15.50;99.90;;;;;;5015753;28;20076;-82
2023/08/02 05:11:06;;;;;;;6.40;2.20;;;15.60;99.90;;;;;;5003669;28;20018;-72
2023/08/02 05:13:33;;;;;;;6.82;3.28;;;15.50;99.90;;;;;;5010147;28;20026;-72
2023/08/02 05:15:58;;;;;;;4.15;2.47;;;15.60;99.90;;;;;;5009601;28;20026;-72
2023/08/02 05:18:24;;;;;;;10.33;2.03;;;15.60;99.90;;;;;;5016796;28;20037;-72
2023/08/02 05:20:50;;;;;;;9.03;2.20;;;15.60;99.90;;;;;;5013476;28;20033;-72
2023/08/02 05:23:16;;;;;;;6.27;2.27;;;15.50;99.90;;;;;;5017125;28;20061;-72
2023/08/02 05:25:42;;;;;;;7.82;2.00;;;15.60;99.90;;;;;;5001143;28;20053;-85
2023/08/02 05:28:08;;;;;;;7.90;2.67;;;15.50;99.90;;;;;;5007258;28;20025;-72
2023/08/02 05:30:36;;;;;;;4.90;2.13;;;15.50;99.90;;;;;;5008261;28;20029;-72
2023/08/02 05:33:01;;;;;;;9.05;2.70;;;15.50;99.90;;;;;;5010049;28;20138;-72
2023/08/02 05:35:29;;;;;;;12.93;2.80;;;15.60;99.90;;;;;;5008585;28;20149;-72
2023/08/02 05:37:55;;;;;;;6.13;2.47;;;15.60;99.90;;;;;;5005024;28;20471;-72
2023/08/02 05:40:21;;;;;;;5.45;2.20;;;15.60;99.90;;;;;;5008004;28;20409;-73
2023/08/02 05:42:48;;;;;;;5.90;2.50;;;15.60;99.90;;;;;;5010521;28;20038;-73
2023/08/02 05:45:13;;;;;;;6.28;2.92;;;15.60;99.90;;;;;;5002737;28;20812;-73
2023/08/02 05:47:39;;;;;;;4.50;2.70;;;15.60;99.90;;;;;;5006080;28;20037;-72
2023/08/02 05:50:06;;;;;;;9.23;2.40;;;15.60;99.90;;;;;;5009894;28;20053;-72
2023/08/02 05:52:31;;;;;;;3.50;2.10;;;15.60;99.90;;;;;;5005980;28;20068;-72
2023/08/02 05:54:57;;;;;;;5.53;2.70;;;15.60;99.90;;;;;;5006388;28;20329;-85
2023/08/02 05:57:23;;;;;;;4.87;2.70;;;15.60;99.90;;;;;;5000603;28;20088;-73
2023/08/02 05:59:49;;;;;;;4.73;2.47;;;15.60;99.90;;;;;;5007406;28;20041;-79
2023/08/02 06:02:15;;;;;;;2.85;1.88;;;15.60;99.90;;;;;;5010944;28;20026;-73
2023/08/02 06:04:44;;;;;;;4.93;2.20;;;15.60;99.90;;;;;;5013609;28;20091;-72
2023/08/02 06:07:10;;;;;;;4.95;2.63;;;15.70;99.90;;;;;;5009782;28;20425;-72
2023/08/02 06:09:36;;;;;;;4.60;3.13;;;15.70;99.90;;;;;;5007348;28;20030;-72
2023/08/02 06:12:03;;;;;;;5.10;2.50;;;15.70;99.90;;;;;;5009030;28;20065;-71
2023/08/02 06:14:28;;;;;;;10.50;3.08;;;15.70;99.90;;;;;;5013159;28;20018;-71
2023/08/02 06:16:54;;;;;;;6.07;2.40;;;15.70;99.90;;;;;;5007660;28;20085;-72
2023/08/02 06:19:20;;;;;;;5.37;2.90;;;15.70;99.90;;;;;;5007298;28;20140;-72
2023/08/02 06:21:46;;;;;;;6.70;2.33;;;15.70;99.90;;;;;;5021700;28;20038;-71
2023/08/02 06:24:11;;;;;;;6.30;2.90;;;15.70;99.90;;;;;;5004938;28;20586;-71
2023/08/02 06:26:37;;;;;;;5.17;1.93;;;15.70;99.90;;;;;;5014633;28;20049;-72
2023/08/02 06:29:03;;;;;;;4.70;2.47;;;15.70;99.90;;;;;;5018735;28;20053;-72
2023/08/02 06:31:29;;;;;;;6.87;1.90;;;15.70;99.90;;;;;;5027988;28;20355;-72
2023/08/02 06:33:54;;;;;;;3.73;2.00;;;15.70;99.90;;;;;;5027450;28;20405;-83
2023/08/02 06:36:20;;;;;;;4.70;2.27;;;15.70;99.90;;;;;;5031205;28;20033;-73
2023/08/02 06:38:46;;;;;;;5.70;2.20;;;15.70;99.90;;;;;;5026341;28;20033;-72
2023/08/02 06:41:12;;;;;;;3.58;1.80;;;15.70;99.90;;;;;;5019045;28;20041;-72
2023/08/02 06:43:38;;;;;;;5.30;1.92;;;15.70;99.90;;;;;;5015835;28;20121;-73
2023/08/02 06:46:04;;;;;;;6.47;1.73;;;15.70;99.90;;;;;;5036042;28;20109;-74
2023/08/02 06:48:30;;;;;;;4.13;1.80;;;15.70;99.90;;;;;;5010691;28;20076;-74
2023/08/02 06:50:56;;;;;;;2.67;1.80;;;15.70;99.90;;;;;;5027019;28;20038;-77
2023/08/02 06:53:22;;;;;;;4.30;1.60;;;15.70;99.90;;;;;;5021398;28;20026;-75
2023/08/02 06:55:47;;;;;;;3.57;1.70;;;15.70;99.90;;;;;;5043675;28;20061;-74
2023/08/02 06:58:13;;;;;;;2.10;1.33;;;15.70;99.90;;;;;;5019303;28;20018;-73
2023/08/02 07:00:40;;;;;;;1.80;1.33;;;15.70;99.90;;;;;;5025177;28;20036;-85
2023/08/02 07:03:06;;;;;;;3.45;1.30;;;15.70;99.90;;;;;;5023020;28;20372;-72
2023/08/02 07:05:34;;;;;;;2.63;1.53;;;15.70;99.90;;;;;;5022571;28;20029;-74
2023/08/02 07:08:01;;;;;;;1.98;1.38;;;15.70;99.90;;;;;;5007896;28;20025;-74
2023/08/02 07:10:27;;;;;;;4.90;1.50;;;15.80;99.90;;;;;;5046944;28;20032;-75
2023/08/02 07:12:53;;;;;;;;;;;15.70;99.90;;;;;;5027059;28;20054;-75
2023/08/02 07:15:19;;;;;;;2.00;1.15;;;15.80;99.90;;;;;;5013719;28;19944;-74
2023/08/02 07:17:46;;;;;;;2.07;1.23;;;15.80;99.90;;;;;;5017829;28;20073;-74
2023/08/02 07:20:12;;;;;;;1.30;1.20;;;15.80;99.90;;;;;;5015289;28;20026;-73
2023/08/02 07:22:43;;;;;;;1.95;1.40;;;15.80;99.90;;;;;;5017710;28;20087;-73
2023/08/02 07:25:09;;;;;;;1.67;1.27;;;15.90;99.90;;;;;;5012232;28;20041;-79
2023/08/02 07:27:37;;;;;;;2.85;1.13;;;15.90;99.90;;;;;;5002500;28;20024;-73
2023/08/02 07:30:03;;;;;;;2.25;1.08;;;15.90;99.90;;;;;;5014509;28;20029;-74
2023/08/02 07:32:30;;;;;;;3.83;1.40;;;15.90;99.90;;;;;;5016526;28;20064;-73
2023/08/02 07:34:57;;;;;;;1.70;0.90;;;16.00;99.90;;;;;;5017043;28;20037;-73
2023/08/02 07:37:23;;;;;;;2.35;1.20;;;16.00;99.90;;;;;;5013496;28;20040;-72
2023/08/02 07:39:49;;;;;;;2.35;1.15;;;16.00;99.90;;;;;;5014809;28;20040;-72
2023/08/02 07:42:15;;;;;;;2.25;1.10;;;16.00;99.90;;;;;;5014538;28;20040;-73
2023/08/02 07:44:41;;;;;;;1.40;1.00;;;16.00;99.90;;;;;;5016020;28;20034;-75
2023/08/02 07:47:07;;;;;;;1.67;1.30;;;16.00;99.90;;;;;;5016397;28;20041;-75
2023/08/02 07:49:32;;;;;;;1.37;0.90;;;16.10;99.90;;;;;;5022216;28;20156;-75
2023/08/02 07:51:59;;;;;;;1.40;0.90;;;16.10;99.90;;;;;;5022244;28;20032;-75
2023/08/02 07:54:24;;;;;;;0.68;0.55;;;16.10;99.90;;;;;;5027764;28;20022;-76
2023/08/02 07:56:50;;;;;;;0.60;0.50;;;16.10;99.90;;;;;;5030540;28;20130;-73
2023/08/02 07:59:16;;;;;;;1.83;0.80;;;16.10;99.90;;;;;;5034052;28;20105;-74
2023/08/02 08:01:42;;;;;;;0.57;0.57;;;16.10;99.90;;;;;;5020418;28;20102;-74
2023/08/02 08:04:08;;;;;;;2.95;1.15;;;16.20;99.90;;;;;;5028749;28;20026;-73
2023/08/02 08:06:34;;;;;;;1.48;0.65;;;16.20;99.90;;;;;;5017606;28;20026;-73
2023/08/02 08:09:00;;;;;;;0.73;0.63;;;16.20;99.90;;;;;;5032801;28;20079;-77
2023/08/02 08:11:29;;;;;;;0.60;0.50;;;16.20;99.90;;;;;;5029296;28;20113;-73
2023/08/02 08:13:55;;;;;;;0.50;0.22;;;16.20;99.90;;;;;;5032829;28;20474;-74
2023/08/02 08:16:21;;;;;;;0.52;0.35;;;16.30;99.90;;;;;;5028010;28;20125;-80
2023/08/02 08:18:47;;;;;;;0.37;0.37;;;16.30;99.90;;;;;;5025578;28;20473;-75
2023/08/02 08:21:13;;;;;;;1.07;0.40;;;16.20;99.90;;;;;;5026653;28;20021;-73
2023/08/02 08:23:40;;;;;;;0.97;0.50;;;16.20;99.90;;;;;;5030250;28;20161;-74
2023/08/02 08:26:10;;;;;;;0.32;0.30;;;16.20;99.90;;;;;;5015558;28;20627;-72
2023/08/02 08:28:35;;;;;;;0.20;0.20;;;16.20;99.90;;;;;;5015219;28;20022;-73
2023/08/02 08:31:03;;;;;;;0.40;0.33;;;16.20;99.90;;;;;;5015950;28;20295;-74
2023/08/02 08:33:29;;;;;;;0.40;0.40;;;16.20;99.90;;;;;;5015857;28;20037;-72
2023/08/02 08:35:55;;;;;;;;;;;16.20;99.90;;;;;;5014479;28;20054;-74
2023/08/02 08:38:21;;;;;;;0.40;0.30;;;16.20;99.90;;;;;;5032736;28;19949;-73
2023/08/02 08:40:51;;;;;;;0.20;0.20;;;16.30;99.90;;;;;;5004665;28;20421;-72
2023/08/02 08:43:18;;;;;;;0.40;0.25;;;16.30;99.90;;;;;;5015523;28;20105;-75
2023/08/02 08:45:44;;;;;;;0.60;0.20;;;16.30;99.90;;;;;;5030330;28;20130;-75
2023/08/02 08:48:10;;;;;;;0.30;0.30;;;16.40;99.90;;;;;;5015524;28;20116;-74
2023/08/02 08:50:37;;;;;;;0.20;0.20;;;16.50;99.90;;;;;;5002178;28;20113;-73
2023/08/02 08:53:08;;;;;;;0.20;0.20;;;16.50;99.90;;;;;;5013649;28;20112;-74
2023/08/02 08:55:36;;;;;;;0.80;0.35;;;16.50;99.90;;;;;;5010788;28;20014;-74
2023/08/02 08:58:02;;;;;;;0.25;0.15;;;16.50;99.90;;;;;;5013429;28;20033;-79
2023/08/02 09:00:31;;;;;;;0.30;0.20;;;16.50;99.90;;;;;;5004843;28;20030;-73
2023/08/02 09:02:59;;;;;;;0.30;0.30;;;16.50;99.90;;;;;;5012314;28;20101;-73
2023/08/02 09:05:27;;;;;;;0.60;0.32;;;16.60;99.90;;;;;;5013989;28;20025;-74
2023/08/02 09:07:59;;;;;;;0.10;0.10;;;16.60;99.90;;;;;;5029496;28;20030;-74
2023/08/02 09:10:26;;;;;;;2.63;0.60;;;16.80;99.90;;;;;;5015006;28;20316;-73
2023/08/02 09:12:52;;;;;;;0.50;0.50;;;17.00;99.90;;;;;;5013349;28;20486;-76
2023/08/02 09:15:18;;;;;;;1.43;0.37;;;17.10;99.90;;;;;;5014739;28;20026;-74
2023/08/02 09:17:52;;;;;;;0.63;0.60;;;17.30;99.90;;;;;;5015085;28;20034;-74
2023/08/02 09:20:20;;;;;;;0.50;0.50;;;17.50;99.90;;;;;;5014161;28;20030;-73
2023/08/02 09:22:46;;;;;;;2.38;0.80;;;17.60;99.90;;;;;;5010458;28;20349;-73
2023/08/02 09:25:28;;;;;;;0.77;0.63;;;17.60;99.90;;;;;;5012182;28;20042;-73
2023/08/02 09:27:59;;;;;;;1.02;0.45;;;17.60;99.90;;;;;;5006036;28;20058;-73
2023/08/02 09:30:32;;;;;;;0.52;0.40;;;17.70;99.90;;;;;;5009728;28;20040;-73
2023/08/02 09:33:08;;;;;;;1.13;0.60;;;17.70;99.90;;;;;;5014670;28;20026;-73
2023/08/02 09:35:47;;;;;;;0.75;0.75;;;17.80;99.90;;;;;;5013164;28;20436;-72
2023/08/02 09:38:13;;;;;;;0.68;0.60;;;17.80;99.90;;;;;;5020700;28;20034;-74
2023/08/02 09:40:40;;;;;;;0.75;0.75;;;17.80;99.90;;;;;;5012833;28;20032;-79
2023/08/02 09:43:10;;;;;;;0.60;0.60;;;17.80;99.90;;;;;;5013799;28;20058;-73
2023/08/02 09:45:36;;;;;;;1.58;1.10;;;17.80;99.90;;;;;;5013938;28;20030;-72
2023/08/02 09:48:02;;;;;;;0.82;0.80;;;17.80;99.90;;;;;;5014741;28;20317;-83
2023/08/02 09:50:28;;;;;;;2.13;1.10;;;17.90;99.90;;;;;;5011970;28;20018;-78
2023/08/02 09:52:55;;;;;;;3.35;1.23;;;18.10;99.90;;;;;;5024012;28;20037;-72
2023/08/02 09:55:20;;;;;;;1.95;1.05;;;18.20;99.90;;;;;;5008644;28;20022;-83
2023/08/02 09:57:48;;;;;;;1.10;1.00;;;18.30;99.90;;;;;;4997824;28;20117;-84
2023/08/02 10:00:15;;;;;;;1.42;1.20;;;18.40;99.90;;;;;;5008028;28;20719;-72
2023/08/02 10:02:41;;;;;;;4.18;1.17;;;18.50;99.90;;;;;;5011099;28;20026;-72
2023/08/02 10:05:12;;;;;;;1.10;1.05;;;18.60;99.90;;;;;;5024916;28;20037;-77
2023/08/02 10:07:48;;;;;;;1.75;1.60;;;18.70;99.90;;;;;;5013920;28;20076;-72
2023/08/02 10:10:25;;;;;;;1.55;1.38;;;18.80;99.90;;;;;;5007915;28;20025;-73
2023/08/02 10:12:59;;;;;;;1.50;1.40;;;18.90;99.90;;;;;;5004621;28;20121;-82
2023/08/02 10:15:26;;;;;;;1.60;1.33;;;19.00;99.90;;;;;;5009345;28;20018;-75
2023/08/02 10:17:52;;;;;;;2.28;1.70;;;19.00;99.90;;;;;;5012779;28;20083;-73
2023/08/02 10:20:19;;;;;;;1.77;1.58;;;19.30;99.90;;;;;;5022452;28;20056;-74
2023/08/02 10:22:45;;;;;;;2.67;1.63;;;19.40;99.90;;;;;;5013408;28;20147;-73
2023/08/02 10:25:13;;;;;;;3.05;1.63;;;19.40;99.90;;;;;;5017329;28;20061;-74
2023/08/02 10:27:40;;;;;;;2.83;1.83;;;19.40;99.90;;;;;;5011921;28;20030;-74
2023/08/02 10:30:06;;;;;;;;;;;19.40;99.90;;;;;;5017803;28;20026;-75
2023/08/02 10:32:31;;;;;;;3.38;1.40;;;19.50;99.90;;;;;;5017167;28;19996;-75
2023/08/02 10:34:59;;;;;;;4.00;1.80;;;19.50;99.90;;;;;;5017705;28;20034;-75
2023/08/02 10:37:50;;;;;;;2.03;1.40;;;19.50;99.90;;;;;;4135396;28;10000960;-75
2023/08/02 10:40:15;;;;;;;1.95;1.85;;;19.40;99.90;;;;;;5034803;28;20337;-74
2023/08/02 10:43:04;;;;;;;3.03;1.33;;;19.40;99.90;;;;;;5054867;28;20029;-74
2023/08/02 10:45:30;;;;;;;5.97;2.13;;;19.60;99.90;;;;;;5036306;28;20022;-74
2023/08/02 10:48:25;;;;;;;4.07;1.90;;;20.00;99.90;;;;;;5046134;28;20032;-75
2023/08/02 10:50:52;;;;;;;2.60;1.95;;;20.20;99.90;;;;;;5039416;28;20022;-75
2023/08/02 10:53:17;;;;;;;3.15;1.70;;;20.40;99.90;;;;;;5024971;28;20021;-75
2023/08/02 10:56:06;;;;;;;7.00;2.20;;;20.60;99.90;;;;;;5038843;28;20160;-75
2023/08/02 10:58:49;;;;;;;4.95;1.98;;;20.80;99.90;;;;;;5026202;28;20026;-81
2023/08/02 11:01:15;;;;;;;3.95;1.85;;;20.90;99.90;;;;;;5028501;28;20037;-73
2023/08/02 11:03:41;;;;;;;5.53;1.67;;;20.90;99.90;;;;;;5027298;28;20460;-73
2023/08/02 11:06:07;;;;;;;6.00;1.73;;;21.00;99.90;;;;;;5032936;28;20051;-74
2023/08/02 11:08:46;;;;;;;2.17;1.30;;;21.30;99.90;;;;;;5038632;28;20026;-74
2023/08/02 11:11:12;;;;;;;4.22;1.30;;;21.50;99.90;;;;;;5042756;28;20052;-74
2023/08/02 11:13:42;;;;;;;2.77;1.43;;;21.40;99.90;;;;;;5035178;28;20468;-78
2023/08/02 11:16:09;;;;;;;2.38;1.25;;;21.30;99.90;;;;;;5049858;28;20046;-73
2023/08/02 11:18:34;;;;;;;2.97;0.85;;;21.40;99.90;;;;;;5041621;28;20301;-72
2023/08/02 11:21:11;;;;;;;6.10;1.20;;;21.60;99.90;;;;;;5037845;28;20087;-75
2023/08/02 11:23:37;;;;;;;8.15;1.30;;;21.90;99.90;;;;;;5064920;28;20186;-73
2023/08/02 11:26:13;;;;;;;5.72;1.67;;;22.00;99.90;;;;;;5056329;28;20458;-73
2023/08/02 11:28:39;;;;;;;;;;;22.20;99.90;;;;;;5043109;28;20368;-74
2023/08/02 11:31:05;;;;;;;1.58;1.00;;;22.40;99.90;;;;;;5038920;28;19910;-73
2023/08/02 11:33:32;;;;;;;5.75;1.38;;;22.50;99.90;;;;;;5061718;28;20061;-73
2023/08/02 11:35:58;;;;;;;6.00;1.65;;;22.50;99.90;;;;;;5051497;28;20096;-72
2023/08/02 11:38:25;;;;;;;2.65;1.02;;;22.30;99.90;;;;;;5045986;28;20048;-73
2023/08/02 11:40:51;;;;;;;3.63;1.48;;;22.30;99.90;;;;;;5045366;28;20090;-73
2023/08/02 11:43:16;;;;;;;7.47;1.30;;;22.30;99.90;;;;;;5053358;28;20021;-72
2023/08/02 11:45:42;;;;;;;2.67;1.10;;;22.30;99.90;;;;;;5041638;28;20287;-74
2023/08/02 11:48:30;;;;;;;1.48;0.57;;;22.30;99.90;;;;;;5040882;28;20024;-73
2023/08/02 11:51:00;;;;;;;4.05;0.50;;;22.20;99.90;;;;;;5031876;28;20084;-73
2023/08/02 11:53:25;;;;;;;3.88;0.65;;;22.10;99.90;;;;;;5024545;28;20044;-73
2023/08/02 11:55:51;;;;;;;2.07;0.40;;;22.20;99.90;;;;;;5028698;28;20410;-72
2023/08/02 11:58:17;;;;;;;1.73;0.70;;;22.30;99.90;;;;;;5047007;28;20083;-81
2023/08/02 12:00:43;;;;;;;2.67;0.50;;;22.30;99.90;;;;;;5045356;28;20321;-71
2023/08/02 12:03:13;;;;;;;0.30;0.30;;;22.40;99.90;;;;;;5049958;28;20323;-73
2023/08/02 12:05:40;;;;;;;2.42;0.50;;;22.50;99.90;;;;;;5024706;28;20025;-81
2023/08/02 12:08:11;;;;;;;1.13;0.40;;;22.60;99.90;;;;;;5026707;28;20032;-72
2023/08/02 12:10:38;;;;;;;4.70;0.57;;;22.60;99.90;;;;;;5027518;28;20017;-73
2023/08/02 12:13:14;;;;;;;1.75;0.70;;;22.70;99.90;;;;;;5027229;28;20432;-73
2023/08/02 12:15:41;;;;;;;5.43;1.20;;;22.80;99.90;;;;;;5027924;28;20096;-73
2023/08/02 12:18:06;;;;;;;;;;;22.80;99.90;;;;;;5032745;28;20289;-73
2023/08/02 12:20:34;;;;;;;4.35;0.95;;;22.80;99.90;;;;;;5025716;28;19913;-84
2023/08/02 12:23:00;;;;;;;2.75;0.82;;;22.70;99.90;;;;;;5028984;28;20029;-73
2023/08/02 12:25:26;;;;;;;2.67;0.45;;;22.60;99.90;;;;;;5029621;28;20042;-72
2023/08/02 12:28:08;;;;;;;0.30;0.30;;;22.40;99.90;;;;;;5021443;28;20340;-72
2023/08/02 12:30:34;;;;;;;6.22;0.80;;;22.20;99.90;;;;;;5026042;28;20021;-73
2023/08/02 12:33:00;;;;;;;2.75;0.60;;;22.00;99.90;;;;;;5025685;28;20079;-73
2023/08/02 12:35:26;;;;;;;8.67;0.63;;;21.70;99.90;;;;;;5031104;28;20416;-76
2023/08/02 12:37:52;;;;;;;0.87;0.50;;;21.60;99.90;;;;;;5032821;28;20350;-73
2023/08/02 12:40:18;;;;;;;0.50;0.40;;;21.60;99.90;;;;;;5038457;28;20263;-73
2023/08/02 12:42:43;;;;;;;0.97;0.47;;;21.60;99.90;;;;;;5029585;28;20037;-74
2023/08/02 12:45:09;;;;;;;3.57;0.83;;;21.60;99.90;;;;;;5025949;28;20036;-72
2023/08/02 12:47:35;;;;;;;1.83;0.47;;;21.90;99.90;;;;;;5028462;28;20128;-72
2023/08/02 12:50:01;;;;;;;4.18;0.80;;;22.30;99.90;;;;;;5026405;28;20108;-72